sensor_id;sensor_type;location;lat;lon;timestamp;temperature;humidity
22173;DHT22;11252;50.596;17.648;2022-12-07T00:01:36;2.70;92.20
22173;DHT22;11252;50.596;17.648;2022-12-07T00:04:07;2.60;92.20
22173;DHT22;11252;50.596;17.648;2022-12-07T00:06:37;2.60;92.20
22173;DHT22;11252;50.596;17.648;2022-12-07T00:09:06;2.60;92.20
22173;DHT22;11252;50.596;17.648;2022-12-07T00:11:34;2.60;92.20
22173;DHT22;11252;50.596;17.648;2022-12-07T00:14:04;2.60;92.20
22173;DHT22;11252;50.596;17.648;2022-12-07T00:16:33;2.60;92.20
22173;DHT22;11252;50.596;17.648;2022-12-07T00:19:04;2.60;92.20
22173;DHT22;11252;50.596;17.648;2022-12-07T00:21:36;2.60;92.20
22173;DHT22;11252;50.596;17.648;2022-12-07T00:24:05;2.50;92.20
22173;DHT22;11252;50.596;17.648;2022-12-07T00:26:37;2.50;92.20
22173;DHT22;11252;50.596;17.648;2022-12-07T00:29:21;2.50;92.20
22173;DHT22;11252;50.596;17.648;2022-12-07T00:31:50;2.50;92.20
22173;DHT22;11252;50.596;17.648;2022-12-07T00:34:20;2.50;92.20
22173;DHT22;11252;50.596;17.648;2022-12-07T00:36:48;2.50;92.20
22173;DHT22;11252;50.596;17.648;2022-12-07T00:39:16;2.60;92.20
22173;DHT22;11252;50.596;17.648;2022-12-07T00:41:44;2.60;92.20
22173;DHT22;11252;50.596;17.648;2022-12-07T00:44:12;2.50;92.20
22173;DHT22;11252;50.596;17.648;2022-12-07T00:46:39;2.40;92.20
22173;DHT22;11252;50.596;17.648;2022-12-07T00:49:06;2.40;92.20
22173;DHT22;11252;50.596;17.648;2022-12-07T00:51:34;2.30;92.20
22173;DHT22;11252;50.596;17.648;2022-12-07T00:54:01;2.30;92.20
22173;DHT22;11252;50.596;17.648;2022-12-07T00:56:29;2.10;92.20
22173;DHT22;11252;50.596;17.648;2022-12-07T00:59:01;2.10;92.20
22173;DHT22;11252;50.596;17.648;2022-12-07T01:01:32;2.00;92.20
22173;DHT22;11252;50.596;17.648;2022-12-07T01:04:00;2.00;92.20
22173;DHT22;11252;50.596;17.648;2022-12-07T01:06:31;2.00;92.20
22173;DHT22;11252;50.596;17.648;2022-12-07T01:08:59;1.90;92.20
22173;DHT22;11252;50.596;17.648;2022-12-07T01:11:29;1.90;92.20
22173;DHT22;11252;50.596;17.648;2022-12-07T01:13:58;1.80;92.20
22173;DHT22;11252;50.596;17.648;2022-12-07T01:16:27;1.80;92.20
22173;DHT22;11252;50.596;17.648;2022-12-07T01:18:56;1.70;92.20
22173;DHT22;11252;50.596;17.648;2022-12-07T01:21:29;1.60;92.20
22173;DHT22;11252;50.596;17.648;2022-12-07T01:23:57;1.60;92.20
22173;DHT22;11252;50.596;17.648;2022-12-07T01:26:25;1.60;92.20
22173;DHT22;11252;50.596;17.648;2022-12-07T01:28:53;1.60;92.20
22173;DHT22;11252;50.596;17.648;2022-12-07T01:31:24;1.70;92.20
22173;DHT22;11252;50.596;17.648;2022-12-07T01:33:57;1.60;92.20
22173;DHT22;11252;50.596;17.648;2022-12-07T01:36:33;1.60;92.20
22173;DHT22;11252;50.596;17.648;2022-12-07T01:39:04;1.60;92.20
22173;DHT22;11252;50.596;17.648;2022-12-07T01:41:35;1.60;92.20
22173;DHT22;11252;50.596;17.648;2022-12-07T01:44:22;1.60;92.20
22173;DHT22;11252;50.596;17.648;2022-12-07T01:46:52;1.60;92.20
22173;DHT22;11252;50.596;17.648;2022-12-07T01:49:42;1.70;92.20
22173;DHT22;11252;50.596;17.648;2022-12-07T01:52:23;1.70;92.20
22173;DHT22;11252;50.596;17.648;2022-12-07T01:54:56;1.70;92.20
22173;DHT22;11252;50.596;17.648;2022-12-07T01:57:24;1.70;92.20
22173;DHT22;11252;50.596;17.648;2022-12-07T01:59:53;1.70;92.20
22173;DHT22;11252;50.596;17.648;2022-12-07T02:02:34;1.70;92.20
22173;DHT22;11252;50.596;17.648;2022-12-07T02:05:04;1.70;92.20
22173;DHT22;11252;50.596;17.648;2022-12-07T02:07:40;1.70;92.20
22173;DHT22;11252;50.596;17.648;2022-12-07T02:10:20;1.70;92.20
22173;DHT22;11252;50.596;17.648;2022-12-07T02:12:52;1.80;92.20
22173;DHT22;11252;50.596;17.648;2022-12-07T02:15:22;1.80;92.20
22173;DHT22;11252;50.596;17.648;2022-12-07T02:24:15;1.90;92.20
22173;DHT22;11252;50.596;17.648;2022-12-07T02:29:50;1.70;92.20
22173;DHT22;11252;50.596;17.648;2022-12-07T02:35:51;1.70;92.20
22173;DHT22;11252;50.596;17.648;2022-12-07T02:41:12;1.70;92.20
22173;DHT22;11252;50.596;17.648;2022-12-07T02:43:45;1.80;92.20
22173;DHT22;11252;50.596;17.648;2022-12-07T02:46:23;1.90;92.20
22173;DHT22;11252;50.596;17.648;2022-12-07T02:48:54;2.00;92.20
22173;DHT22;11252;50.596;17.648;2022-12-07T02:51:22;2.10;92.20
22173;DHT22;11252;50.596;17.648;2022-12-07T02:53:49;2.00;92.20
22173;DHT22;11252;50.596;17.648;2022-12-07T03:04:51;2.10;92.20
22173;DHT22;11252;50.596;17.648;2022-12-07T03:13:05;2.10;92.20
22173;DHT22;11252;50.596;17.648;2022-12-07T03:18:21;2.00;92.20
22173;DHT22;11252;50.596;17.648;2022-12-07T03:20:52;2.00;92.20
22173;DHT22;11252;50.596;17.648;2022-12-07T03:23:22;2.00;92.20
22173;DHT22;11252;50.596;17.648;2022-12-07T03:25:55;2.00;92.20
22173;DHT22;11252;50.596;17.648;2022-12-07T03:28:31;2.00;92.20
22173;DHT22;11252;50.596;17.648;2022-12-07T03:31:05;2.00;92.20
22173;DHT22;11252;50.596;17.648;2022-12-07T03:33:52;2.00;92.20
22173;DHT22;11252;50.596;17.648;2022-12-07T03:39:27;2.00;92.20
22173;DHT22;11252;50.596;17.648;2022-12-07T03:41:57;2.10;92.20
22173;DHT22;11252;50.596;17.648;2022-12-07T03:44:26;2.10;92.20
22173;DHT22;11252;50.596;17.648;2022-12-07T03:50:03;2.10;92.20
22173;DHT22;11252;50.596;17.648;2022-12-07T03:52:39;2.10;92.20
22173;DHT22;11252;50.596;17.648;2022-12-07T03:55:18;2.10;92.20
22173;DHT22;11252;50.596;17.648;2022-12-07T03:57:50;2.20;92.20
22173;DHT22;11252;50.596;17.648;2022-12-07T04:00:21;2.10;92.20
22173;DHT22;11252;50.596;17.648;2022-12-07T04:02:51;2.10;92.20
22173;DHT22;11252;50.596;17.648;2022-12-07T04:05:19;2.20;92.20
22173;DHT22;11252;50.596;17.648;2022-12-07T04:07:47;2.10;92.20
22173;DHT22;11252;50.596;17.648;2022-12-07T04:10:14;2.10;92.20
22173;DHT22;11252;50.596;17.648;2022-12-07T04:12:42;2.10;92.20
22173;DHT22;11252;50.596;17.648;2022-12-07T04:15:10;2.10;92.20
22173;DHT22;11252;50.596;17.648;2022-12-07T04:17:38;2.20;92.20
22173;DHT22;11252;50.596;17.648;2022-12-07T04:20:08;2.20;92.20
22173;DHT22;11252;50.596;17.648;2022-12-07T04:22:36;2.20;92.20
22173;DHT22;11252;50.596;17.648;2022-12-07T04:25:03;2.10;92.20
22173;DHT22;11252;50.596;17.648;2022-12-07T04:27:31;2.10;92.20
22173;DHT22;11252;50.596;17.648;2022-12-07T04:29:58;2.20;92.20
22173;DHT22;11252;50.596;17.648;2022-12-07T04:32:26;2.20;92.20
22173;DHT22;11252;50.596;17.648;2022-12-07T04:34:53;2.20;92.20
22173;DHT22;11252;50.596;17.648;2022-12-07T04:37:22;2.20;92.20
22173;DHT22;11252;50.596;17.648;2022-12-07T04:39:50;2.20;92.20
22173;DHT22;11252;50.596;17.648;2022-12-07T04:42:18;2.20;92.20
22173;DHT22;11252;50.596;17.648;2022-12-07T04:44:45;2.20;92.20
22173;DHT22;11252;50.596;17.648;2022-12-07T04:47:13;2.10;92.20
22173;DHT22;11252;50.596;17.648;2022-12-07T04:49:40;2.10;92.20
22173;DHT22;11252;50.596;17.648;2022-12-07T04:52:07;2.10;92.20
22173;DHT22;11252;50.596;17.648;2022-12-07T04:54:35;2.10;92.20
22173;DHT22;11252;50.596;17.648;2022-12-07T04:57:02;2.10;92.20
22173;DHT22;11252;50.596;17.648;2022-12-07T04:59:30;2.10;92.20
22173;DHT22;11252;50.596;17.648;2022-12-07T05:01:57;2.00;92.20
22173;DHT22;11252;50.596;17.648;2022-12-07T05:04:24;2.10;92.20
22173;DHT22;11252;50.596;17.648;2022-12-07T05:06:52;2.10;92.20
22173;DHT22;11252;50.596;17.648;2022-12-07T05:09:20;2.10;92.20
22173;DHT22;11252;50.596;17.648;2022-12-07T05:11:47;2.00;92.20
22173;DHT22;11252;50.596;17.648;2022-12-07T05:14:20;2.00;92.20
22173;DHT22;11252;50.596;17.648;2022-12-07T05:16:49;2.10;92.20
22173;DHT22;11252;50.596;17.648;2022-12-07T05:19:18;2.10;92.20
22173;DHT22;11252;50.596;17.648;2022-12-07T05:21:46;2.10;92.20
22173;DHT22;11252;50.596;17.648;2022-12-07T05:24:15;2.20;92.20
22173;DHT22;11252;50.596;17.648;2022-12-07T05:26:43;2.10;92.20
22173;DHT22;11252;50.596;17.648;2022-12-07T05:29:16;2.10;92.20
22173;DHT22;11252;50.596;17.648;2022-12-07T05:31:44;2.20;92.20
22173;DHT22;11252;50.596;17.648;2022-12-07T05:34:11;2.10;92.20
22173;DHT22;11252;50.596;17.648;2022-12-07T05:36:39;2.10;92.20
22173;DHT22;11252;50.596;17.648;2022-12-07T05:39:08;2.10;92.20
22173;DHT22;11252;50.596;17.648;2022-12-07T05:41:35;2.10;92.20
22173;DHT22;11252;50.596;17.648;2022-12-07T05:44:21;2.10;92.20
22173;DHT22;11252;50.596;17.648;2022-12-07T05:46:49;2.10;92.20
22173;DHT22;11252;50.596;17.648;2022-12-07T05:49:16;2.10;92.20
22173;DHT22;11252;50.596;17.648;2022-12-07T05:51:43;2.00;92.20
22173;DHT22;11252;50.596;17.648;2022-12-07T05:54:11;2.10;92.20
22173;DHT22;11252;50.596;17.648;2022-12-07T05:56:38;2.10;92.20
22173;DHT22;11252;50.596;17.648;2022-12-07T05:59:05;2.10;92.20
22173;DHT22;11252;50.596;17.648;2022-12-07T06:01:57;2.10;92.20
22173;DHT22;11252;50.596;17.648;2022-12-07T06:04:27;2.10;92.20
22173;DHT22;11252;50.596;17.648;2022-12-07T06:06:55;2.20;92.20
22173;DHT22;11252;50.596;17.648;2022-12-07T06:09:24;2.20;92.20
22173;DHT22;11252;50.596;17.648;2022-12-07T06:11:52;2.20;92.20
22173;DHT22;11252;50.596;17.648;2022-12-07T06:14:58;2.20;92.20
22173;DHT22;11252;50.596;17.648;2022-12-07T06:17:26;2.10;92.20
22173;DHT22;11252;50.596;17.648;2022-12-07T06:19:53;2.00;92.20
22173;DHT22;11252;50.596;17.648;2022-12-07T06:22:21;2.00;92.20
22173;DHT22;11252;50.596;17.648;2022-12-07T06:24:48;2.00;92.20
22173;DHT22;11252;50.596;17.648;2022-12-07T06:27:16;2.00;92.20
22173;DHT22;11252;50.596;17.648;2022-12-07T06:29:43;2.00;92.20
22173;DHT22;11252;50.596;17.648;2022-12-07T06:32:11;1.90;92.20
22173;DHT22;11252;50.596;17.648;2022-12-07T06:34:39;1.90;92.20
22173;DHT22;11252;50.596;17.648;2022-12-07T06:37:07;2.00;92.20
22173;DHT22;11252;50.596;17.648;2022-12-07T06:39:34;2.10;92.20
22173;DHT22;11252;50.596;17.648;2022-12-07T06:42:02;2.10;92.20
22173;DHT22;11252;50.596;17.648;2022-12-07T06:44:29;2.00;92.20
22173;DHT22;11252;50.596;17.648;2022-12-07T06:46:57;2.00;92.20
22173;DHT22;11252;50.596;17.648;2022-12-07T06:49:44;1.90;92.20
22173;DHT22;11252;50.596;17.648;2022-12-07T06:52:11;1.90;92.20
22173;DHT22;11252;50.596;17.648;2022-12-07T06:54:39;2.00;92.20
22173;DHT22;11252;50.596;17.648;2022-12-07T06:57:06;2.10;92.20
22173;DHT22;11252;50.596;17.648;2022-12-07T06:59:34;2.10;92.20
22173;DHT22;11252;50.596;17.648;2022-12-07T07:02:02;2.10;92.20
22173;DHT22;11252;50.596;17.648;2022-12-07T07:04:30;2.10;92.20
22173;DHT22;11252;50.596;17.648;2022-12-07T07:06:57;2.10;92.20
22173;DHT22;11252;50.596;17.648;2022-12-07T07:09:26;2.20;92.20
22173;DHT22;11252;50.596;17.648;2022-12-07T07:11:54;2.20;92.20
22173;DHT22;11252;50.596;17.648;2022-12-07T07:14:21;2.20;92.20
22173;DHT22;11252;50.596;17.648;2022-12-07T07:16:49;2.20;92.20
22173;DHT22;11252;50.596;17.648;2022-12-07T07:19:16;2.20;92.20
22173;DHT22;11252;50.596;17.648;2022-12-07T07:21:43;2.20;92.20
22173;DHT22;11252;50.596;17.648;2022-12-07T07:24:11;2.20;92.20
22173;DHT22;11252;50.596;17.648;2022-12-07T07:26:38;2.30;92.20
22173;DHT22;11252;50.596;17.648;2022-12-07T07:29:06;2.30;92.20
22173;DHT22;11252;50.596;17.648;2022-12-07T07:31:33;2.30;92.20
22173;DHT22;11252;50.596;17.648;2022-12-07T07:34:03;2.30;92.20
22173;DHT22;11252;50.596;17.648;2022-12-07T07:36:30;2.20;92.20
22173;DHT22;11252;50.596;17.648;2022-12-07T07:38:58;2.20;92.20
22173;DHT22;11252;50.596;17.648;2022-12-07T07:41:26;2.20;92.20
22173;DHT22;11252;50.596;17.648;2022-12-07T07:43:54;2.20;92.20
22173;DHT22;11252;50.596;17.648;2022-12-07T07:46:21;2.20;92.20
22173;DHT22;11252;50.596;17.648;2022-12-07T07:48:49;2.30;92.20
22173;DHT22;11252;50.596;17.648;2022-12-07T07:51:16;2.30;92.20
22173;DHT22;11252;50.596;17.648;2022-12-07T07:53:43;2.20;92.20
22173;DHT22;11252;50.596;17.648;2022-12-07T07:56:11;2.20;92.20
22173;DHT22;11252;50.596;17.648;2022-12-07T07:58:38;2.30;92.20
22173;DHT22;11252;50.596;17.648;2022-12-07T08:01:07;2.40;92.20
22173;DHT22;11252;50.596;17.648;2022-12-07T08:03:35;2.50;92.20
22173;DHT22;11252;50.596;17.648;2022-12-07T08:06:03;2.60;92.20
22173;DHT22;11252;50.596;17.648;2022-12-07T08:08:31;2.60;92.20
22173;DHT22;11252;50.596;17.648;2022-12-07T08:10:59;2.60;92.20
22173;DHT22;11252;50.596;17.648;2022-12-07T08:13:28;2.60;92.20
22173;DHT22;11252;50.596;17.648;2022-12-07T08:15:58;2.70;92.20
22173;DHT22;11252;50.596;17.648;2022-12-07T08:18:25;2.70;92.20
22173;DHT22;11252;50.596;17.648;2022-12-07T08:20:59;2.80;92.20
22173;DHT22;11252;50.596;17.648;2022-12-07T08:23:27;2.80;92.20
22173;DHT22;11252;50.596;17.648;2022-12-07T08:26:07;3.00;92.20
22173;DHT22;11252;50.596;17.648;2022-12-07T08:28:36;3.10;92.20
22173;DHT22;11252;50.596;17.648;2022-12-07T08:31:07;3.20;92.20
22173;DHT22;11252;50.596;17.648;2022-12-07T08:33:36;3.40;92.20
22173;DHT22;11252;50.596;17.648;2022-12-07T08:36:08;3.50;92.20
22173;DHT22;11252;50.596;17.648;2022-12-07T08:38:37;3.50;92.20
22173;DHT22;11252;50.596;17.648;2022-12-07T08:41:06;3.50;92.20
22173;DHT22;11252;50.596;17.648;2022-12-07T08:43:34;3.40;92.20
22173;DHT22;11252;50.596;17.648;2022-12-07T08:48:54;3.30;92.20
22173;DHT22;11252;50.596;17.648;2022-12-07T08:51:24;3.30;92.20
22173;DHT22;11252;50.596;17.648;2022-12-07T08:53:52;3.30;92.20
22173;DHT22;11252;50.596;17.648;2022-12-07T08:56:20;3.40;92.20
22173;DHT22;11252;50.596;17.648;2022-12-07T08:58:49;3.60;92.20
22173;DHT22;11252;50.596;17.648;2022-12-07T09:01:16;3.70;92.20
22173;DHT22;11252;50.596;17.648;2022-12-07T09:03:43;3.70;92.20
22173;DHT22;11252;50.596;17.648;2022-12-07T09:06:11;3.70;92.20
22173;DHT22;11252;50.596;17.648;2022-12-07T09:08:42;3.80;92.20
22173;DHT22;11252;50.596;17.648;2022-12-07T09:11:12;3.80;92.20
22173;DHT22;11252;50.596;17.648;2022-12-07T09:13:40;3.80;92.20
22173;DHT22;11252;50.596;17.648;2022-12-07T09:16:07;3.90;92.20
22173;DHT22;11252;50.596;17.648;2022-12-07T09:18:35;3.90;92.20
22173;DHT22;11252;50.596;17.648;2022-12-07T09:21:02;4.00;92.20
22173;DHT22;11252;50.596;17.648;2022-12-07T09:23:30;4.50;92.20
22173;DHT22;11252;50.596;17.648;2022-12-07T09:26:02;5.50;92.20
22173;DHT22;11252;50.596;17.648;2022-12-07T09:28:37;6.00;92.20
22173;DHT22;11252;50.596;17.648;2022-12-07T09:31:06;6.60;92.20
22173;DHT22;11252;50.596;17.648;2022-12-07T09:33:57;7.40;92.20
22173;DHT22;11252;50.596;17.648;2022-12-07T09:36:26;8.20;92.20
22173;DHT22;11252;50.596;17.648;2022-12-07T09:38:54;8.90;92.20
22173;DHT22;11252;50.596;17.648;2022-12-07T09:41:23;9.70;92.20
22173;DHT22;11252;50.596;17.648;2022-12-07T09:43:53;10.20;88.00
22173;DHT22;11252;50.596;17.648;2022-12-07T09:46:24;10.00;85.50
22173;DHT22;11252;50.596;17.648;2022-12-07T09:48:53;10.00;86.40
22173;DHT22;11252;50.596;17.648;2022-12-07T09:51:22;9.60;85.60
22173;DHT22;11252;50.596;17.648;2022-12-07T09:53:53;9.80;86.20
22173;DHT22;11252;50.596;17.648;2022-12-07T09:56:22;10.20;86.10
22173;DHT22;11252;50.596;17.648;2022-12-07T09:58:59;10.20;83.80
22173;DHT22;11252;50.596;17.648;2022-12-07T10:01:30;10.10;84.80
22173;DHT22;11252;50.596;17.648;2022-12-07T10:06:40;10.30;82.00
22173;DHT22;11252;50.596;17.648;2022-12-07T10:09:15;10.20;84.70
22173;DHT22;11252;50.596;17.648;2022-12-07T10:12:05;10.50;81.00
22173;DHT22;11252;50.596;17.648;2022-12-07T10:14:36;10.70;83.00
22173;DHT22;11252;50.596;17.648;2022-12-07T10:17:31;9.60;82.30
22173;DHT22;11252;50.596;17.648;2022-12-07T10:20:26;8.10;85.90
22173;DHT22;11252;50.596;17.648;2022-12-07T10:22:59;7.30;88.00
22173;DHT22;11252;50.596;17.648;2022-12-07T10:25:33;7.10;89.40
22173;DHT22;11252;50.596;17.648;2022-12-07T10:28:12;6.90;87.60
22173;DHT22;11252;50.596;17.648;2022-12-07T10:30:52;6.80;88.80
22173;DHT22;11252;50.596;17.648;2022-12-07T10:35:58;6.60;87.90
22173;DHT22;11252;50.596;17.648;2022-12-07T10:38:27;6.50;89.10
22173;DHT22;11252;50.596;17.648;2022-12-07T10:41:06;6.60;89.80
22173;DHT22;11252;50.596;17.648;2022-12-07T10:43:34;6.70;89.80
22173;DHT22;11252;50.596;17.648;2022-12-07T10:49:07;6.60;89.20
22173;DHT22;11252;50.596;17.648;2022-12-07T10:52:07;6.40;88.60
22173;DHT22;11252;50.596;17.648;2022-12-07T11:04:27;6.20;90.00
22173;DHT22;11252;50.596;17.648;2022-12-07T11:09:57;6.30;90.90
22173;DHT22;11252;50.596;17.648;2022-12-07T11:15:28;6.00;91.50
22173;DHT22;11252;50.596;17.648;2022-12-07T11:18:11;5.70;92.20
22173;DHT22;11252;50.596;17.648;2022-12-07T11:29:48;5.50;92.20
22173;DHT22;11252;50.596;17.648;2022-12-07T11:38:15;5.10;92.20
22173;DHT22;11252;50.596;17.648;2022-12-07T11:40:51;4.90;92.20
22173;DHT22;11252;50.596;17.648;2022-12-07T11:43:27;4.80;92.20
22173;DHT22;11252;50.596;17.648;2022-12-07T11:46:06;4.80;92.20
22173;DHT22;11252;50.596;17.648;2022-12-07T11:48:40;4.80;92.20
22173;DHT22;11252;50.596;17.648;2022-12-07T11:51:11;4.80;92.20
22173;DHT22;11252;50.596;17.648;2022-12-07T11:53:43;4.80;92.20
22173;DHT22;11252;50.596;17.648;2022-12-07T11:56:15;4.80;92.20
22173;DHT22;11252;50.596;17.648;2022-12-07T11:59:22;4.70;92.20
22173;DHT22;11252;50.596;17.648;2022-12-07T12:02:14;4.70;92.20
22173;DHT22;11252;50.596;17.648;2022-12-07T12:05:17;4.60;92.20
22173;DHT22;11252;50.596;17.648;2022-12-07T12:07:46;4.50;92.20
22173;DHT22;11252;50.596;17.648;2022-12-07T12:13:48;4.50;92.20
22173;DHT22;11252;50.596;17.648;2022-12-07T12:22:44;4.50;92.20
22173;DHT22;11252;50.596;17.648;2022-12-07T12:25:20;4.50;92.20
22173;DHT22;11252;50.596;17.648;2022-12-07T12:27:50;4.50;92.20
22173;DHT22;11252;50.596;17.648;2022-12-07T12:30:44;4.50;92.20
22173;DHT22;11252;50.596;17.648;2022-12-07T12:33:14;4.50;92.20
22173;DHT22;11252;50.596;17.648;2022-12-07T12:35:42;4.60;92.20
22173;DHT22;11252;50.596;17.648;2022-12-07T12:38:34;4.50;92.20
22173;DHT22;11252;50.596;17.648;2022-12-07T12:51:49;4.50;92.20
22173;DHT22;11252;50.596;17.648;2022-12-07T12:57:09;4.60;92.20
22173;DHT22;11252;50.596;17.648;2022-12-07T13:15:34;4.70;92.20
22173;DHT22;11252;50.596;17.648;2022-12-07T13:20:52;4.50;92.20
22173;DHT22;11252;50.596;17.648;2022-12-07T13:24:09;4.50;92.20
22173;DHT22;11252;50.596;17.648;2022-12-07T13:29:37;4.40;92.20
22173;DHT22;11252;50.596;17.648;2022-12-07T13:31:47;4.30;92.20
22173;DHT22;11252;50.596;17.648;2022-12-07T13:34:40;4.30;92.20
22173;DHT22;11252;50.596;17.648;2022-12-07T13:39:47;4.30;92.20
22173;DHT22;11252;50.596;17.648;2022-12-07T13:42:34;4.30;92.20
22173;DHT22;11252;50.596;17.648;2022-12-07T13:45:24;4.20;92.20
22173;DHT22;11252;50.596;17.648;2022-12-07T13:48:24;4.20;92.20
22173;DHT22;11252;50.596;17.648;2022-12-07T13:50:56;4.20;92.20
22173;DHT22;11252;50.596;17.648;2022-12-07T13:53:24;4.20;92.20
22173;DHT22;11252;50.596;17.648;2022-12-07T13:55:55;4.20;92.20
22173;DHT22;11252;50.596;17.648;2022-12-07T13:58:23;4.20;92.20
22173;DHT22;11252;50.596;17.648;2022-12-07T14:00:51;4.20;92.20
22173;DHT22;11252;50.596;17.648;2022-12-07T14:03:29;4.20;92.20
22173;DHT22;11252;50.596;17.648;2022-12-07T14:06:16;4.20;92.20
22173;DHT22;11252;50.596;17.648;2022-12-07T14:08:44;4.10;92.20
22173;DHT22;11252;50.596;17.648;2022-12-07T14:11:17;4.10;92.20
22173;DHT22;11252;50.596;17.648;2022-12-07T14:18:46;4.00;92.20
22173;DHT22;11252;50.596;17.648;2022-12-07T14:23:41;3.90;92.20
22173;DHT22;11252;50.596;17.648;2022-12-07T14:26:13;3.90;92.20
22173;DHT22;11252;50.596;17.648;2022-12-07T14:28:43;3.90;92.20
22173;DHT22;11252;50.596;17.648;2022-12-07T14:31:17;3.90;92.20
22173;DHT22;11252;50.596;17.648;2022-12-07T14:33:59;3.80;92.20
22173;DHT22;11252;50.596;17.648;2022-12-07T14:36:27;3.80;92.20
22173;DHT22;11252;50.596;17.648;2022-12-07T14:38:54;3.70;92.20
22173;DHT22;11252;50.596;17.648;2022-12-07T14:41:25;3.70;92.20
22173;DHT22;11252;50.596;17.648;2022-12-07T14:44:12;3.60;92.20
22173;DHT22;11252;50.596;17.648;2022-12-07T14:46:51;3.60;92.20
22173;DHT22;11252;50.596;17.648;2022-12-07T14:49:40;3.50;92.20
22173;DHT22;11252;50.596;17.648;2022-12-07T14:52:23;3.50;92.20
22173;DHT22;11252;50.596;17.648;2022-12-07T14:55:24;3.40;92.20
22173;DHT22;11252;50.596;17.648;2022-12-07T14:57:53;3.40;92.20
22173;DHT22;11252;50.596;17.648;2022-12-07T15:00:23;3.40;92.20
22173;DHT22;11252;50.596;17.648;2022-12-07T15:02:51;3.40;92.20
22173;DHT22;11252;50.596;17.648;2022-12-07T15:05:19;3.40;92.20
22173;DHT22;11252;50.596;17.648;2022-12-07T15:07:48;3.40;92.20
22173;DHT22;11252;50.596;17.648;2022-12-07T15:10:18;3.40;92.20
22173;DHT22;11252;50.596;17.648;2022-12-07T15:12:50;3.30;92.20
22173;DHT22;11252;50.596;17.648;2022-12-07T15:15:17;3.30;92.20
22173;DHT22;11252;50.596;17.648;2022-12-07T15:17:45;3.30;92.20
22173;DHT22;11252;50.596;17.648;2022-12-07T15:20:16;3.30;92.20
22173;DHT22;11252;50.596;17.648;2022-12-07T15:22:44;3.30;92.20
22173;DHT22;11252;50.596;17.648;2022-12-07T15:25:14;3.30;92.20
22173;DHT22;11252;50.596;17.648;2022-12-07T15:27:41;3.30;92.20
22173;DHT22;11252;50.596;17.648;2022-12-07T15:30:09;3.30;92.20
22173;DHT22;11252;50.596;17.648;2022-12-07T15:32:37;3.30;92.20
22173;DHT22;11252;50.596;17.648;2022-12-07T15:35:05;3.30;92.20
22173;DHT22;11252;50.596;17.648;2022-12-07T15:37:36;3.30;92.20
22173;DHT22;11252;50.596;17.648;2022-12-07T15:40:11;3.30;92.20
22173;DHT22;11252;50.596;17.648;2022-12-07T15:42:41;3.40;92.20
22173;DHT22;11252;50.596;17.648;2022-12-07T15:45:09;3.40;92.20
22173;DHT22;11252;50.596;17.648;2022-12-07T15:47:41;3.40;92.20
22173;DHT22;11252;50.596;17.648;2022-12-07T15:50:29;3.40;92.20
22173;DHT22;11252;50.596;17.648;2022-12-07T15:52:56;3.40;92.20
22173;DHT22;11252;50.596;17.648;2022-12-07T15:55:24;3.40;92.20
22173;DHT22;11252;50.596;17.648;2022-12-07T15:57:51;3.50;92.20
22173;DHT22;11252;50.596;17.648;2022-12-07T16:00:19;3.50;92.20
22173;DHT22;11252;50.596;17.648;2022-12-07T16:02:47;3.60;92.20
22173;DHT22;11252;50.596;17.648;2022-12-07T16:05:14;3.50;92.20
22173;DHT22;11252;50.596;17.648;2022-12-07T16:07:42;3.60;92.20
22173;DHT22;11252;50.596;17.648;2022-12-07T16:10:10;3.60;92.20
22173;DHT22;11252;50.596;17.648;2022-12-07T16:12:37;3.60;92.20
22173;DHT22;11252;50.596;17.648;2022-12-07T16:15:05;3.60;92.20
22173;DHT22;11252;50.596;17.648;2022-12-07T16:17:32;3.60;92.20
22173;DHT22;11252;50.596;17.648;2022-12-07T16:20:00;3.60;92.20
22173;DHT22;11252;50.596;17.648;2022-12-07T16:22:27;3.60;92.20
22173;DHT22;11252;50.596;17.648;2022-12-07T16:24:55;3.60;92.20
22173;DHT22;11252;50.596;17.648;2022-12-07T16:27:22;3.60;92.20
22173;DHT22;11252;50.596;17.648;2022-12-07T16:29:50;3.60;92.20
22173;DHT22;11252;50.596;17.648;2022-12-07T16:32:17;3.60;92.20
22173;DHT22;11252;50.596;17.648;2022-12-07T16:34:45;3.50;92.20
22173;DHT22;11252;50.596;17.648;2022-12-07T16:37:12;3.40;92.20
22173;DHT22;11252;50.596;17.648;2022-12-07T16:39:39;3.30;92.20
22173;DHT22;11252;50.596;17.648;2022-12-07T16:42:08;3.30;92.20
22173;DHT22;11252;50.596;17.648;2022-12-07T16:44:35;3.20;92.20
22173;DHT22;11252;50.596;17.648;2022-12-07T16:47:03;3.20;92.20
22173;DHT22;11252;50.596;17.648;2022-12-07T16:49:31;3.20;92.20
22173;DHT22;11252;50.596;17.648;2022-12-07T16:51:58;3.10;92.20
22173;DHT22;11252;50.596;17.648;2022-12-07T16:54:46;3.00;92.20
22173;DHT22;11252;50.596;17.648;2022-12-07T16:57:13;3.00;92.20
22173;DHT22;11252;50.596;17.648;2022-12-07T16:59:48;3.00;92.20
22173;DHT22;11252;50.596;17.648;2022-12-07T17:02:15;3.00;92.20
22173;DHT22;11252;50.596;17.648;2022-12-07T17:04:43;2.90;92.20
22173;DHT22;11252;50.596;17.648;2022-12-07T17:07:10;2.90;92.20
22173;DHT22;11252;50.596;17.648;2022-12-07T17:09:37;2.90;92.20
22173;DHT22;11252;50.596;17.648;2022-12-07T17:12:05;2.90;92.20
22173;DHT22;11252;50.596;17.648;2022-12-07T17:14:33;2.90;92.20
22173;DHT22;11252;50.596;17.648;2022-12-07T17:17:19;2.90;92.20
22173;DHT22;11252;50.596;17.648;2022-12-07T17:19:47;2.90;92.20
22173;DHT22;11252;50.596;17.648;2022-12-07T17:22:14;2.90;92.20
22173;DHT22;11252;50.596;17.648;2022-12-07T17:24:41;2.80;92.20
22173;DHT22;11252;50.596;17.648;2022-12-07T17:27:09;2.80;92.20
22173;DHT22;11252;50.596;17.648;2022-12-07T17:29:37;2.90;92.20
22173;DHT22;11252;50.596;17.648;2022-12-07T17:32:05;2.80;92.20
22173;DHT22;11252;50.596;17.648;2022-12-07T17:34:33;2.80;92.20
22173;DHT22;11252;50.596;17.648;2022-12-07T17:37:00;2.80;92.20
22173;DHT22;11252;50.596;17.648;2022-12-07T17:39:28;2.80;92.20
22173;DHT22;11252;50.596;17.648;2022-12-07T17:41:55;2.80;92.20
22173;DHT22;11252;50.596;17.648;2022-12-07T17:44:41;2.80;92.20
22173;DHT22;11252;50.596;17.648;2022-12-07T17:47:09;2.80;92.20
22173;DHT22;11252;50.596;17.648;2022-12-07T17:49:37;2.70;92.20
22173;DHT22;11252;50.596;17.648;2022-12-07T17:52:04;2.70;92.20
22173;DHT22;11252;50.596;17.648;2022-12-07T17:54:51;2.70;92.20
22173;DHT22;11252;50.596;17.648;2022-12-07T17:57:18;2.80;92.20
22173;DHT22;11252;50.596;17.648;2022-12-07T17:59:46;2.70;92.20
22173;DHT22;11252;50.596;17.648;2022-12-07T18:02:13;2.70;92.20
22173;DHT22;11252;50.596;17.648;2022-12-07T18:04:41;2.70;92.20
22173;DHT22;11252;50.596;17.648;2022-12-07T18:07:09;2.70;92.20
22173;DHT22;11252;50.596;17.648;2022-12-07T18:09:36;2.70;92.20
22173;DHT22;11252;50.596;17.648;2022-12-07T18:12:05;2.70;92.20